Time;durP1;ratioP1;P1;durP2;ratioP2;P2;SDS_P1;SDS_P2;PMS_P1;PMS_P2;Temp;Humidity;BMP_temperature;BMP_pressure;BME280_temperature;BME280_humidity;BME280_pressure;Samples;Min_cycle;Max_cycle;Signal;HPM_P1;HPM_P2
2021/06/25 00:00:50;;;;;;;2.70;2.60;;;22.90;40.10;;;;;;4849562;29;20412;-81
2021/06/25 00:03:16;;;;;;;2.50;2.40;;;22.80;40.00;;;;;;4849640;29;20207;-81
2021/06/25 00:05:41;;;;;;;2.80;2.70;;;22.80;40.00;;;;;;4866243;29;20243;-81
2021/06/25 00:08:10;;;;;;;2.60;2.50;;;22.80;40.00;;;;;;4849390;29;20676;-80
2021/06/25 00:10:37;;;;;;;3.10;3.00;;;22.80;40.00;;;;;;4849363;29;20265;-80
2021/06/25 00:13:15;;;;;;;2.40;2.30;;;22.80;40.00;;;;;;4849231;29;20478;-80
2021/06/25 00:15:40;;;;;;;2.70;2.60;;;22.80;40.00;;;;;;4849662;29;20443;-80
2021/06/25 00:18:06;;;;;;;2.30;2.30;;;22.80;40.00;;;;;;4850091;29;20423;-81
2021/06/25 00:20:32;;;;;;;2.57;2.50;;;22.80;39.90;;;;;;4849499;29;20182;-81
2021/06/25 00:22:58;;;;;;;2.43;2.33;;;22.80;39.90;;;;;;4866023;29;20440;-80
2021/06/25 00:25:24;;;;;;;2.87;2.77;;;22.80;40.00;;;;;;4849552;29;20633;-81
2021/06/25 00:27:49;;;;;;;2.70;2.60;;;22.80;40.00;;;;;;4866385;29;20563;-81
2021/06/25 00:30:16;;;;;;;2.50;2.40;;;22.90;40.10;;;;;;4866045;29;20420;-81
2021/06/25 00:32:43;;;;;;;2.53;2.43;;;22.80;40.00;;;;;;4848582;29;20752;-80
2021/06/25 00:35:12;;;;;;;2.60;2.50;;;22.80;40.60;;;;;;4848961;29;20911;-80
2021/06/25 00:37:38;;;;;;;2.60;2.50;;;22.80;40.00;;;;;;4864949;29;20424;-79
2021/06/25 00:40:06;;;;;;;2.70;2.60;;;22.90;40.10;;;;;;4865344;29;20463;-80
2021/06/25 00:42:32;;;;;;;2.63;2.53;;;22.80;39.90;;;;;;4848224;29;20214;-80
2021/06/25 00:44:58;;;;;;;2.53;2.43;;;22.80;40.00;;;;;;4864574;29;20790;-81
2021/06/25 00:47:23;;;;;;;2.63;2.53;;;22.80;39.90;;;;;;4847801;29;20427;-81
2021/06/25 00:49:49;;;;;;;2.57;2.47;;;22.80;40.00;;;;;;4864002;29;20435;-80
2021/06/25 00:52:17;;;;;;;2.90;2.80;;;22.80;39.90;;;;;;4862748;29;20223;-80
2021/06/25 00:54:44;;;;;;;2.90;2.80;;;22.80;40.00;;;;;;4863625;29;20175;-80
2021/06/25 00:57:16;;;;;;;2.83;2.73;;;22.80;40.00;;;;;;4846268;29;20500;-80
2021/06/25 00:59:42;;;;;;;2.77;2.67;;;22.80;39.90;;;;;;4863463;29;20907;-80
2021/06/25 01:02:08;;;;;;;2.50;2.40;;;22.80;40.00;;;;;;4846426;29;20462;-80
2021/06/25 01:04:35;;;;;;;2.40;2.33;;;22.80;39.90;;;;;;4863251;29;20182;-80
2021/06/25 01:07:02;;;;;;;2.67;2.57;;;22.80;39.90;;;;;;4846404;29;20825;-80
2021/06/25 01:09:28;;;;;;;2.70;2.60;;;22.80;39.90;;;;;;4846771;29;20436;-80
2021/06/25 01:11:54;;;;;;;3.20;3.10;;;22.80;39.90;;;;;;4862559;29;20902;-80
2021/06/25 01:14:23;;;;;;;2.60;2.50;;;22.80;40.00;;;;;;4862776;29;20470;-80
2021/06/25 01:16:50;;;;;;;2.77;2.60;;;22.80;39.90;;;;;;4845984;29;20462;-80
2021/06/25 01:19:16;;;;;;;2.60;2.50;;;22.80;39.90;;;;;;4831128;29;20438;-80
2021/06/25 01:21:44;;;;;;;2.70;2.60;;;22.80;39.90;;;;;;4846323;29;20451;-80
2021/06/25 01:24:10;;;;;;;2.80;2.70;;;22.80;39.90;;;;;;4846547;29;20335;-80
2021/06/25 01:26:36;;;;;;;2.80;2.70;;;22.80;39.90;;;;;;4846354;29;20917;-80
2021/06/25 01:29:02;;;;;;;2.70;2.60;;;22.80;39.90;;;;;;4862387;29;20246;-80
2021/06/25 01:31:28;;;;;;;2.70;2.60;;;22.80;39.90;;;;;;4846778;29;20526;-80
2021/06/25 01:33:54;;;;;;;2.47;2.37;;;22.80;39.90;;;;;;4862568;29;20661;-80
2021/06/25 01:36:19;;;;;;;2.70;2.60;;;22.80;39.80;;;;;;4862880;29;20183;-80
2021/06/25 01:38:47;;;;;;;2.53;2.43;;;22.80;39.90;;;;;;4862712;29;20419;-80
2021/06/25 01:41:13;;;;;;;2.50;2.40;;;22.80;39.90;;;;;;4862985;29;20182;-80
2021/06/25 01:43:39;;;;;;;2.60;2.50;;;22.80;39.80;;;;;;4846331;29;20551;-80
2021/06/25 01:46:07;;;;;;;2.70;2.60;;;22.80;39.80;;;;;;4845905;29;20675;-81
2021/06/25 01:48:33;;;;;;;2.70;2.60;;;22.80;39.90;;;;;;4845502;29;20431;-80
2021/06/25 01:50:59;;;;;;;2.80;2.70;;;22.80;39.90;;;;;;4862012;29;20420;-80
2021/06/25 01:53:25;;;;;;;2.70;2.60;;;22.80;39.80;;;;;;4861686;29;20195;-80
2021/06/25 01:55:51;;;;;;;2.80;2.70;;;22.80;39.90;;;;;;4862220;29;20585;-80
2021/06/25 01:58:27;;;;;;;2.70;2.60;;;22.80;39.80;;;;;;4845785;29;20492;-80
2021/06/25 02:01:14;;;;;;;2.80;2.70;;;22.80;39.90;;;;;;4845230;29;20174;-79
2021/06/25 02:03:46;;;;;;;2.50;2.40;;;22.80;39.80;;;;;;4861482;29;20427;-80
2021/06/25 02:06:13;;;;;;;2.57;2.50;;;22.80;39.80;;;;;;4862012;29;20419;-80
2021/06/25 02:08:39;;;;;;;2.60;2.50;;;22.80;39.80;;;;;;4862170;29;20415;-80
2021/06/25 02:11:06;;;;;;;2.50;2.40;;;22.80;39.80;;;;;;4861411;29;20407;-80
2021/06/25 02:13:32;;;;;;;2.23;2.23;;;22.80;39.80;;;;;;4861357;29;20851;-80
2021/06/25 02:15:58;;;;;;;2.93;2.83;;;22.80;39.90;;;;;;4845619;29;20563;-80
2021/06/25 02:18:23;;;;;;;3.00;2.80;;;22.80;39.80;;;;;;4861544;29;20465;-80
2021/06/25 02:20:49;;;;;;;2.60;2.50;;;22.80;39.80;;;;;;4861398;29;20202;-80
2021/06/25 02:23:15;;;;;;;2.73;2.63;;;22.80;39.80;;;;;;4860894;29;20252;-80
2021/06/25 02:25:41;;;;;;;2.70;2.60;;;22.80;39.90;;;;;;4844674;29;20990;-80
2021/06/25 02:28:06;;;;;;;2.70;2.60;;;22.80;39.80;;;;;;4861006;29;20202;-80
2021/06/25 02:30:32;;;;;;;2.57;2.47;;;22.80;39.80;;;;;;4844443;29;20218;-80
2021/06/25 02:32:57;;;;;;;2.47;2.37;;;22.80;39.90;;;;;;4843963;29;20214;-80
2021/06/25 02:35:23;;;;;;;2.60;2.50;;;22.80;39.80;;;;;;4861052;29;20256;-80
2021/06/25 02:37:49;;;;;;;2.60;2.50;;;22.70;39.70;;;;;;4844338;29;20193;-80
2021/06/25 02:40:15;;;;;;;2.90;2.80;;;22.70;39.80;;;;;;4844251;29;20639;-80
2021/06/25 02:42:41;;;;;;;2.40;2.30;;;22.80;39.80;;;;;;4860238;29;20209;-80
2021/06/25 02:45:08;;;;;;;2.70;2.60;;;22.80;39.90;;;;;;4860560;29;20427;-80
2021/06/25 02:47:35;;;;;;;2.57;2.47;;;22.80;39.80;;;;;;4843891;29;20446;-80
2021/06/25 02:50:05;;;;;;;2.90;2.80;;;22.80;39.80;;;;;;4843835;29;20427;-80
2021/06/25 02:52:30;;;;;;;2.60;2.50;;;22.80;39.80;;;;;;4843428;29;20475;-80
2021/06/25 02:54:56;;;;;;;2.77;2.67;;;22.70;39.70;;;;;;4843584;29;20420;-80
2021/06/25 02:57:22;;;;;;;2.63;2.53;;;22.80;39.80;;;;;;4843286;29;20269;-80
2021/06/25 02:59:47;;;;;;;2.70;2.60;;;22.80;39.70;;;;;;4843900;29;20193;-80
2021/06/25 03:02:13;;;;;;;2.37;2.37;;;22.70;39.70;;;;;;4859897;29;20206;-80
2021/06/25 03:04:38;;;;;;;2.30;2.30;;;22.80;39.80;;;;;;4860679;29;20198;-80
2021/06/25 03:07:04;;;;;;;2.47;2.37;;;22.70;39.70;;;;;;4847356;29;20183;-80
2021/06/25 03:09:30;;;;;;;2.70;2.60;;;22.80;39.70;;;;;;4846910;29;20189;-80
2021/06/25 03:11:55;;;;;;;2.60;2.50;;;22.70;39.80;;;;;;4863069;29;20214;-80
2021/06/25 03:14:21;;;;;;;2.67;2.57;;;22.70;39.70;;;;;;4863917;29;20179;-80
2021/06/25 03:16:47;;;;;;;2.70;2.60;;;22.70;39.70;;;;;;4847997;29;20620;-80
2021/06/25 03:19:13;;;;;;;2.60;2.50;;;22.70;39.70;;;;;;4865273;29;20202;-80
2021/06/25 03:21:38;;;;;;;2.70;2.60;;;22.70;39.70;;;;;;4848793;29;20491;-80
2021/06/25 03:24:04;;;;;;;2.73;2.63;;;22.70;39.70;;;;;;4848508;29;20195;-80
2021/06/25 03:26:30;;;;;;;2.80;2.70;;;22.70;39.70;;;;;;4864854;29;20560;-80
2021/06/25 03:28:55;;;;;;;2.70;2.60;;;22.80;39.80;;;;;;4864966;29;20510;-80
2021/06/25 03:31:22;;;;;;;2.50;2.50;;;22.70;39.70;;;;;;4864763;29;20241;-80
2021/06/25 03:33:48;;;;;;;2.93;2.83;;;22.70;40.40;;;;;;4865200;29;20281;-80
2021/06/25 03:36:13;;;;;;;2.90;2.70;;;22.70;39.70;;;;;;4865478;29;20926;-80
2021/06/25 03:38:39;;;;;;;2.70;2.60;;;22.70;39.70;;;;;;4865273;29;20426;-80
2021/06/25 03:41:05;;;;;;;2.80;2.70;;;22.70;39.70;;;;;;4865644;29;20183;-80
2021/06/25 03:43:30;;;;;;;2.83;2.73;;;22.70;39.70;;;;;;4865153;29;20206;-80
2021/06/25 03:45:56;;;;;;;3.00;2.90;;;22.70;39.70;;;;;;4848359;29;20191;-80
2021/06/25 03:48:21;;;;;;;2.90;2.80;;;22.70;39.70;;;;;;4865302;29;20198;-80
2021/06/25 03:50:47;;;;;;;2.47;2.37;;;22.70;39.70;;;;;;4848383;29;20263;-80
2021/06/25 03:53:13;;;;;;;2.67;2.57;;;22.70;39.70;;;;;;4864955;29;20614;-81
2021/06/25 03:58:26;;;;;;;2.70;2.60;;;22.70;39.70;;;;;;4850657;29;20244;-80
2021/06/25 04:00:52;;;;;;;2.50;2.50;;;22.70;39.70;;;;;;4864279;29;20485;-80
2021/06/25 04:03:17;;;;;;;2.77;2.67;;;22.70;39.70;;;;;;4864328;29;20876;-79
2021/06/25 04:05:43;;;;;;;2.70;2.60;;;22.70;39.70;;;;;;4864730;29;20191;-80
2021/06/25 04:08:08;;;;;;;3.10;3.00;;;22.70;39.70;;;;;;4848105;29;20567;-80
2021/06/25 04:10:37;;;;;;;2.70;2.60;;;22.70;39.70;;;;;;4864451;29;20183;-80
2021/06/25 04:13:06;;;;;;;2.80;2.70;;;22.70;39.70;;;;;;4847794;29;20218;-80
2021/06/25 04:15:31;;;;;;;2.63;2.57;;;22.70;39.60;;;;;;4864190;29;20416;-81
2021/06/25 04:17:57;;;;;;;3.00;2.90;;;22.70;39.70;;;;;;4863974;29;20487;-79
2021/06/25 04:20:22;;;;;;;2.90;2.80;;;22.70;40.40;;;;;;4847358;29;20178;-80
2021/06/25 04:22:48;;;;;;;2.80;2.70;;;22.70;39.70;;;;;;4847047;29;20202;-80
2021/06/25 04:25:14;;;;;;;2.97;2.87;;;22.70;39.60;;;;;;4863803;29;20674;-80
2021/06/25 04:27:40;;;;;;;2.90;2.80;;;22.70;39.70;;;;;;4850367;29;20183;-80
2021/06/25 04:30:09;;;;;;;2.77;2.67;;;22.70;39.70;;;;;;4852349;29;20179;-80
2021/06/25 04:32:35;;;;;;;2.57;2.50;;;22.80;39.70;;;;;;4849707;29;20218;-80
2021/06/25 04:35:01;;;;;;;2.70;2.60;;;22.70;39.60;;;;;;4851727;29;20429;-80
2021/06/25 04:37:27;;;;;;;2.77;2.67;;;22.70;39.60;;;;;;4851612;29;20446;-80
2021/06/25 04:39:52;;;;;;;2.87;2.77;;;22.70;39.70;;;;;;4868069;29;20451;-81
2021/06/25 04:42:18;;;;;;;2.87;2.77;;;22.70;39.60;;;;;;4868840;29;20207;-81
2021/06/25 04:44:43;;;;;;;2.73;2.63;;;22.80;39.70;;;;;;4868654;29;20643;-79
2021/06/25 04:47:09;;;;;;;3.00;2.80;;;22.80;39.80;;;;;;4851787;29;20191;-81
2021/06/25 04:49:38;;;;;;;2.70;2.60;;;22.70;39.80;;;;;;4852757;29;20183;-81
2021/06/25 04:52:04;;;;;;;2.70;2.60;;;22.70;39.70;;;;;;4867981;29;20279;-80
2021/06/25 04:54:30;;;;;;;2.80;2.70;;;22.80;39.70;;;;;;4868592;29;20426;-80
2021/06/25 04:57:01;;;;;;;2.80;2.70;;;22.80;39.70;;;;;;4868777;29;20416;-81
2021/06/25 04:59:27;;;;;;;3.10;2.93;;;22.70;39.60;;;;;;4852596;29;20220;-80
2021/06/25 05:01:53;;;;;;;2.90;2.70;;;22.70;39.70;;;;;;4868293;29;20439;-80
2021/06/25 05:04:19;;;;;;;2.73;2.50;;;22.70;39.80;;;;;;4867459;29;20503;-80
2021/06/25 05:06:47;;;;;;;2.70;2.60;;;22.70;39.70;;;;;;4867135;29;20179;-81
2021/06/25 05:09:13;;;;;;;2.97;2.87;;;22.70;39.70;;;;;;4866612;29;20174;-80
2021/06/25 05:11:38;;;;;;;3.10;2.90;;;22.70;39.70;;;;;;4867730;29;20835;-80
2021/06/25 05:14:04;;;;;;;3.10;3.00;;;22.70;39.80;;;;;;4850990;29;20495;-80
2021/06/25 05:16:30;;;;;;;2.90;2.80;;;22.70;39.70;;;;;;4850658;29;20261;-81
2021/06/25 05:18:56;;;;;;;2.20;2.20;;;22.70;39.70;;;;;;4866201;29;20242;-80
2021/06/25 05:21:22;;;;;;;2.80;2.60;;;22.70;39.70;;;;;;4848285;29;20190;-81
2021/06/25 05:23:48;;;;;;;2.90;2.80;;;22.70;39.70;;;;;;4847562;29;20798;-81
2021/06/25 05:26:14;;;;;;;2.90;2.80;;;22.70;39.80;;;;;;4847408;29;20202;-81
2021/06/25 05:28:39;;;;;;;2.97;2.87;;;22.70;39.70;;;;;;4863401;29;20938;-80
2021/06/25 05:31:08;;;;;;;2.93;2.83;;;22.70;39.70;;;;;;4847212;29;20574;-80
2021/06/25 05:33:33;;;;;;;3.07;2.97;;;22.70;39.80;;;;;;4863443;29;20195;-80
2021/06/25 05:35:59;;;;;;;3.00;2.90;;;22.70;39.70;;;;;;4864099;29;20551;-80
2021/06/25 05:38:25;;;;;;;3.80;3.37;;;22.70;39.70;;;;;;4847271;29;20187;-80
2021/06/25 05:40:51;;;;;;;3.20;3.10;;;22.70;39.80;;;;;;4862593;29;20175;-82
2021/06/25 05:43:17;;;;;;;3.33;3.13;;;22.70;39.80;;;;;;4862748;29;20201;-82
2021/06/25 05:45:42;;;;;;;3.30;3.10;;;22.70;40.00;;;;;;4847095;29;20458;-81
2021/06/25 05:48:09;;;;;;;3.40;3.20;;;22.70;40.10;;;;;;4846826;29;20182;-81
2021/06/25 05:50:35;;;;;;;3.83;3.40;;;22.70;40.10;;;;;;4863511;29;20243;-81
2021/06/25 05:53:01;;;;;;;3.50;3.30;;;22.70;40.50;;;;;;4866122;29;20467;-81
2021/06/25 05:55:26;;;;;;;3.53;3.30;;;22.80;40.50;;;;;;4851064;29;21055;-80
2021/06/25 05:57:52;;;;;;;3.57;3.37;;;22.70;40.50;;;;;;4865428;29;20213;-79
2021/06/25 06:00:19;;;;;;;3.93;3.60;;;22.70;40.40;;;;;;4862404;29;20257;-83
2021/06/25 06:02:45;;;;;;;3.63;3.43;;;22.70;40.60;;;;;;4845224;29;20221;-80
2021/06/25 06:05:11;;;;;;;5.13;3.20;;;22.70;40.90;;;;;;4845451;29;20431;-82
2021/06/25 06:07:37;;;;;;;5.30;4.23;;;22.70;40.80;;;;;;4844285;29;20978;-81
2021/06/25 06:10:04;;;;;;;7.30;3.67;;;22.70;40.90;;;;;;4860758;29;20536;-80
2021/06/25 06:12:30;;;;;;;4.50;3.00;;;22.70;41.60;;;;;;4860685;29;20297;-80
2021/06/25 06:14:56;;;;;;;5.10;2.93;;;22.70;41.40;;;;;;4860806;29;21056;-79
2021/06/25 06:17:21;;;;;;;3.70;3.20;;;22.70;41.20;;;;;;4860951;29;20174;-79
2021/06/25 06:19:55;;;;;;;4.00;3.80;;;22.70;41.20;;;;;;4860592;29;20694;-80
2021/06/25 06:35:50;;;;;;;3.30;3.20;;;22.50;41.30;;;;;;4862222;29;20412;-78
2021/06/25 06:38:16;;;;;;;3.77;3.57;;;22.50;41.30;;;;;;4862237;29;20171;-76
2021/06/25 06:40:42;;;;;;;2.80;2.70;;;22.50;41.30;;;;;;4860355;29;20938;-80
2021/06/25 06:43:08;;;;;;;3.53;3.43;;;22.50;41.30;;;;;;4860956;29;20435;-78
2021/06/25 06:45:33;;;;;;;3.27;3.00;;;22.40;41.40;;;;;;4862023;29;20178;-77
2021/06/25 06:47:59;;;;;;;3.37;3.07;;;22.50;41.50;;;;;;4861494;29;20206;-78
2021/06/25 06:50:24;;;;;;;3.40;3.13;;;22.50;41.40;;;;;;4861778;29;20183;-78
2021/06/25 06:52:51;;;;;;;3.00;2.90;;;22.50;41.60;;;;;;4860581;29;20259;-78
2021/06/25 06:55:22;;;;;;;4.10;2.83;;;22.40;41.60;;;;;;4843421;29;20246;-77
2021/06/25 06:57:48;;;;;;;3.40;3.20;;;22.40;41.50;;;;;;4858920;29;20420;-78
2021/06/25 07:00:15;;;;;;;3.70;3.47;;;22.40;41.50;;;;;;4859900;29;20426;-76
2021/06/25 07:02:42;;;;;;;3.70;3.50;;;22.40;41.60;;;;;;4859381;29;20258;-77
2021/06/25 07:05:09;;;;;;;8.27;3.77;;;22.40;41.60;;;;;;4860872;29;20420;-78
2021/06/25 07:07:35;;;;;;;3.90;3.60;;;22.40;41.60;;;;;;4859817;29;20407;-77
2021/06/25 07:10:01;;;;;;;4.57;4.17;;;22.40;41.60;;;;;;4844466;29;21009;-78
2021/06/25 07:12:26;;;;;;;4.30;3.87;;;22.40;41.70;;;;;;4862165;29;20494;-77
2021/06/25 07:14:52;;;;;;;6.17;3.40;;;22.50;41.80;;;;;;4862182;29;20981;-78
2021/06/25 07:17:18;;;;;;;6.83;3.80;;;22.50;41.70;;;;;;4844350;29;20219;-77
2021/06/25 07:19:43;;;;;;;4.03;3.03;;;22.50;41.60;;;;;;4860008;29;20183;-77
2021/06/25 07:22:09;;;;;;;3.63;3.33;;;22.40;41.50;;;;;;4843744;29;20206;-79
2021/06/25 07:24:35;;;;;;;3.57;3.37;;;22.40;41.50;;;;;;4861577;29;20190;-79
2021/06/25 07:27:00;;;;;;;3.33;3.23;;;22.40;41.40;;;;;;4844985;29;20254;-77
2021/06/25 07:29:26;;;;;;;3.40;3.20;;;22.40;41.30;;;;;;4861410;29;20427;-77
2021/06/25 07:31:52;;;;;;;3.60;3.30;;;22.40;41.30;;;;;;4861286;29;20230;-77
2021/06/25 07:34:17;;;;;;;3.30;3.13;;;22.50;41.30;;;;;;4862159;29;20182;-78
2021/06/25 07:36:43;;;;;;;3.73;3.50;;;22.40;41.20;;;;;;4846479;29;20679;-78
2021/06/25 07:39:09;;;;;;;3.37;3.10;;;22.50;41.20;;;;;;4863048;29;20238;-77
2021/06/25 07:41:36;;;;;;;3.47;3.27;;;22.50;41.10;;;;;;4861186;29;20262;-77
2021/06/25 07:44:01;;;;;;;3.63;3.33;;;22.50;41.20;;;;;;4845674;29;20804;-77
2021/06/25 07:46:27;;;;;;;3.20;3.10;;;22.50;41.10;;;;;;4862279;29;20836;-78
2021/06/25 07:48:55;;;;;;;3.53;3.23;;;22.50;41.20;;;;;;4861769;29;20179;-77
2021/06/25 07:51:21;;;;;;;3.00;2.90;;;22.50;41.30;;;;;;4845806;29;20494;-78
2021/06/25 07:53:47;;;;;;;3.30;3.10;;;22.50;41.30;;;;;;4848402;29;20427;-77
2021/06/25 07:56:14;;;;;;;3.23;3.07;;;22.40;41.20;;;;;;4866071;29;20171;-77
2021/06/25 07:58:39;;;;;;;3.30;3.10;;;22.40;41.20;;;;;;4864945;29;20258;-78
2021/06/25 08:01:05;;;;;;;3.40;3.20;;;22.50;41.20;;;;;;4865577;29;20483;-77
2021/06/25 08:03:30;;;;;;;3.20;2.90;;;22.40;41.10;;;;;;4865134;29;20226;-78
2021/06/25 08:05:56;;;;;;;3.63;3.43;;;22.40;41.10;;;;;;4865043;29;20183;-78
2021/06/25 08:08:22;;;;;;;3.53;3.33;;;22.40;41.10;;;;;;4865212;29;20230;-78
2021/06/25 08:10:47;;;;;;;3.73;3.53;;;22.40;41.20;;;;;;4865222;29;20419;-77
2021/06/25 08:13:13;;;;;;;4.83;3.73;;;22.40;41.20;;;;;;4848509;29;20630;-78
2021/06/25 08:15:39;;;;;;;3.60;3.40;;;22.50;41.30;;;;;;4865394;29;20238;-77
2021/06/25 08:18:05;;;;;;;3.90;3.70;;;22.40;41.20;;;;;;4849011;29;20186;-78
2021/06/25 08:20:31;;;;;;;3.80;3.60;;;22.40;41.10;;;;;;4863340;29;20421;-77
2021/06/25 08:22:57;;;;;;;3.73;3.53;;;22.40;41.20;;;;;;4861793;29;20526;-77
2021/06/25 08:25:23;;;;;;;3.47;3.27;;;22.50;41.30;;;;;;4845209;29;20439;-76
2021/06/25 08:27:49;;;;;;;4.07;3.77;;;22.40;41.20;;;;;;4861529;29;20519;-79
2021/06/25 08:30:15;;;;;;;3.73;3.53;;;22.50;41.30;;;;;;4861807;29;20502;-77
2021/06/25 08:32:43;;;;;;;3.37;3.20;;;22.40;41.10;;;;;;4861010;29;20210;-77
2021/06/25 08:35:09;;;;;;;3.37;3.27;;;22.40;41.10;;;;;;4860999;29;20461;-77
2021/06/25 08:37:35;;;;;;;3.23;3.03;;;22.40;41.10;;;;;;4861127;29;20451;-77
2021/06/25 08:40:00;;;;;;;3.90;3.70;;;22.40;41.20;;;;;;4861158;29;20439;-77
2021/06/25 08:42:26;;;;;;;4.07;3.83;;;22.40;41.10;;;;;;4861661;29;20209;-78
2021/06/25 08:44:52;;;;;;;4.33;4.10;;;22.50;41.20;;;;;;4861995;29;20194;-78
2021/06/25 08:47:23;;;;;;;4.20;4.00;;;22.40;41.10;;;;;;4845673;29;20423;-79
2021/06/25 08:49:51;;;;;;;4.33;3.93;;;22.40;41.10;;;;;;4846391;29;20672;-78
2021/06/25 08:52:16;;;;;;;4.20;4.00;;;22.40;41.10;;;;;;4864142;29;21196;-78
2021/06/25 08:54:43;;;;;;;4.40;4.20;;;22.40;41.10;;;;;;4861227;29;20503;-78
2021/06/25 08:57:09;;;;;;;4.30;4.10;;;22.40;41.10;;;;;;4862667;29;20175;-79
2021/06/25 08:59:36;;;;;;;4.27;4.10;;;22.40;41.30;;;;;;4845667;29;20499;-79
2021/06/25 09:02:03;;;;;;;4.13;4.00;;;22.40;41.30;;;;;;4862124;29;20813;-78
2021/06/25 09:04:37;;;;;;;5.60;4.47;;;22.40;41.70;;;;;;4862433;29;20423;-79
2021/06/25 09:07:07;;;;;;;4.67;4.37;;;22.40;41.90;;;;;;4861874;29;20426;-79
2021/06/25 09:09:45;;;;;;;4.20;4.00;;;22.40;42.40;;;;;;4846016;29;20431;-78
2021/06/25 09:12:18;;;;;;;4.13;4.03;;;22.40;42.40;;;;;;4861481;29;20884;-78
2021/06/25 09:15:05;;;;;;;3.77;3.67;;;22.40;42.30;;;;;;4862801;29;20772;-79
2021/06/25 09:17:32;;;;;;;4.10;3.80;;;22.40;42.40;;;;;;4845005;29;20424;-78
2021/06/25 09:19:58;;;;;;;5.10;4.63;;;22.40;42.40;;;;;;4847801;29;20424;-78
2021/06/25 09:22:25;;;;;;;5.40;4.90;;;22.40;42.40;;;;;;4847479;29;20447;-80
2021/06/25 09:25:06;;;;;;;4.97;4.67;;;22.40;42.40;;;;;;4829922;29;1031407;-80
2021/06/25 09:27:33;;;;;;;4.20;4.00;;;22.30;43.00;;;;;;4865692;29;20195;-78
2021/06/25 09:30:07;;;;;;;5.13;4.77;;;22.30;42.30;;;;;;4865310;29;20442;-80
2021/06/25 09:32:39;;;;;;;4.77;4.57;;;22.30;42.30;;;;;;4865249;29;20527;-80
2021/06/25 09:35:21;;;;;;;4.30;4.10;;;22.30;42.30;;;;;;4863656;29;20791;-79
2021/06/25 09:37:49;;;;;;;4.37;4.17;;;22.30;42.30;;;;;;4847551;29;20450;-78
2021/06/25 09:40:16;;;;;;;4.50;4.30;;;22.30;42.30;;;;;;4847016;29;20434;-79
2021/06/25 09:42:44;;;;;;;4.93;4.73;;;22.30;42.30;;;;;;4863395;29;20949;-80
2021/06/25 09:45:16;;;;;;;4.30;4.10;;;22.30;42.30;;;;;;4846452;29;20527;-79
2021/06/25 09:47:53;;;;;;;4.40;4.20;;;22.30;42.30;;;;;;4846467;29;20440;-80
2021/06/25 09:50:29;;;;;;;4.30;4.10;;;22.30;42.30;;;;;;4863904;29;20438;-79
2021/06/25 09:52:58;;;;;;;4.53;4.27;;;22.30;42.30;;;;;;4861838;29;20510;-79
2021/06/25 09:55:52;;;;;;;4.60;4.40;;;22.30;42.40;;;;;;4861549;29;20412;-77
2021/06/25 09:58:27;;;;;;;4.40;4.20;;;22.30;42.50;;;;;;4861606;29;20416;-77
2021/06/25 10:03:57;;;;;;;4.27;3.97;;;22.30;42.70;;;;;;4861956;29;20427;-79
2021/06/25 10:06:27;;;;;;;4.50;4.30;;;22.30;42.40;;;;;;4866194;29;20428;-80
2021/06/25 10:08:54;;;;;;;4.33;4.13;;;22.30;42.50;;;;;;4850101;29;20771;-79
2021/06/25 10:11:27;;;;;;;4.40;4.20;;;22.30;42.70;;;;;;4865351;29;20438;-79
2021/06/25 10:13:55;;;;;;;4.30;4.10;;;22.30;42.80;;;;;;4847996;29;20465;-79
2021/06/25 10:16:22;;;;;;;4.67;4.47;;;22.20;42.70;;;;;;4847951;29;20416;-78
2021/06/25 10:18:49;;;;;;;4.03;3.83;;;22.30;42.80;;;;;;4830726;29;20436;-79
2021/06/25 10:21:22;;;;;;;4.50;4.30;;;22.30;42.70;;;;;;4848320;29;20475;-78
2021/06/25 10:23:53;;;;;;;4.30;4.10;;;22.30;42.80;;;;;;4847810;29;20457;-79
2021/06/25 10:26:21;;;;;;;4.67;4.37;;;22.30;42.60;;;;;;4842432;29;20871;-78
2021/06/25 10:28:49;;;;;;;5.70;5.17;;;22.30;42.60;;;;;;4843455;29;20420;-77
2021/06/25 10:31:16;;;;;;;5.30;5.00;;;22.30;42.70;;;;;;4828269;29;20425;-78
2021/06/25 10:33:44;;;;;;;4.13;3.93;;;22.30;42.80;;;;;;4844398;29;20451;-78
2021/06/25 10:36:12;;;;;;;5.63;5.33;;;22.30;42.90;;;;;;4827654;29;20431;-78
2021/06/25 10:38:41;;;;;;;5.73;5.33;;;22.30;42.80;;;;;;4828194;29;20427;-78
2021/06/25 10:41:08;;;;;;;6.03;5.73;;;22.30;42.80;;;;;;4828499;29;20511;-78
2021/06/25 10:43:41;;;;;;;6.10;5.70;;;22.30;42.70;;;;;;4829748;29;20468;-79
2021/06/25 10:46:28;;;;;;;7.00;6.50;;;22.30;42.60;;;;;;4828374;29;20433;-78
2021/06/25 10:48:56;;;;;;;5.73;5.33;;;22.20;42.70;;;;;;4860928;29;20502;-77
2021/06/25 10:51:32;;;;;;;6.17;5.77;;;22.20;42.70;;;;;;4874006;29;20436;-78
2021/06/25 10:54:14;;;;;;;7.10;6.60;;;22.30;42.80;;;;;;4860206;29;20467;-78
2021/06/25 10:56:48;;;;;;;6.70;6.20;;;22.20;42.90;;;;;;4860187;29;20415;-78
2021/06/25 10:59:28;;;;;;;5.93;5.63;;;22.20;42.80;;;;;;4843219;29;20571;-78
2021/06/25 11:01:59;;;;;;;6.00;5.70;;;22.20;42.70;;;;;;4859992;29;20443;-78
2021/06/25 11:04:30;;;;;;;6.87;6.37;;;22.20;42.50;;;;;;4860962;29;20420;-78
2021/06/25 11:06:57;;;;;;;5.93;5.63;;;22.20;42.60;;;;;;4859991;29;20423;-79
2021/06/25 11:09:46;;;;;;;5.90;5.50;;;22.20;42.60;;;;;;4859893;29;20511;-78
2021/06/25 11:12:25;;;;;;;6.50;6.00;;;22.20;42.50;;;;;;4859557;29;20961;-78
2021/06/25 11:15:12;;;;;;;6.50;6.10;;;22.30;42.60;;;;;;4859976;29;20454;-77
2021/06/25 11:17:52;;;;;;;6.77;6.37;;;22.20;43.10;;;;;;4843565;29;20518;-78
2021/06/25 11:20:21;;;;;;;6.83;6.33;;;22.20;42.30;;;;;;4844330;29;20448;-78
2021/06/25 11:22:54;;;;;;;6.30;5.93;;;22.20;42.30;;;;;;4859924;29;20581;-77
2021/06/25 11:25:43;;;;;;;6.60;6.20;;;22.30;42.30;;;;;;4842855;29;20847;-77
2021/06/25 11:28:36;;;;;;;6.67;6.17;;;22.30;42.30;;;;;;4847401;29;20431;-78
2021/06/25 11:31:14;;;;;;;7.23;6.73;;;22.30;42.30;;;;;;4847067;29;20530;-78
2021/06/25 11:34:07;;;;;;;7.33;6.93;;;22.20;42.20;;;;;;4864367;29;20794;-78
2021/06/25 11:36:41;;;;;;;6.80;6.30;;;22.20;42.20;;;;;;4864967;29;20423;-78
2021/06/25 11:39:22;;;;;;;6.80;6.33;;;22.20;42.20;;;;;;4863289;29;20414;-76
2021/06/25 11:41:55;;;;;;;6.90;6.50;;;22.20;42.20;;;;;;4862575;29;20475;-78
2021/06/25 11:44:33;;;;;;;6.60;6.20;;;22.20;42.20;;;;;;4862633;29;20419;-78
2021/06/25 11:47:05;;;;;;;7.53;7.03;;;22.20;42.20;;;;;;4848076;29;20938;-77
2021/06/25 11:49:59;;;;;;;7.63;7.10;;;22.20;42.20;;;;;;4864052;29;20431;-77
2021/06/25 11:52:35;;;;;;;7.90;7.40;;;22.20;42.20;;;;;;4865385;29;20486;-78
2021/06/25 11:55:00;;;;;;;7.33;6.90;;;22.20;42.20;;;;;;4865443;29;20812;-77
2021/06/25 11:57:28;;;;;;;8.37;7.67;;;22.20;42.20;;;;;;4862514;29;20519;-77
2021/06/25 12:00:07;;;;;;;7.70;7.20;;;22.20;42.20;;;;;;4862464;29;20199;-76
2021/06/25 12:02:49;;;;;;;8.40;7.73;;;22.20;42.30;;;;;;4863284;29;20435;-78
2021/06/25 12:05:26;;;;;;;8.30;7.80;;;22.20;42.20;;;;;;4861799;29;20455;-78
2021/06/25 12:08:12;;;;;;;7.27;6.77;;;22.20;42.20;;;;;;4866318;29;20419;-77
2021/06/25 12:10:40;;;;;;;7.40;6.90;;;22.20;42.20;;;;;;4864280;29;20431;-78
2021/06/25 12:13:06;;;;;;;7.77;7.27;;;22.20;42.20;;;;;;4848625;29;20489;-78
2021/06/25 12:15:53;;;;;;;7.57;7.03;;;22.20;42.20;;;;;;4848449;29;20752;-78
2021/06/25 12:18:24;;;;;;;8.30;7.80;;;22.20;42.20;;;;;;4848865;29;20427;-77
2021/06/25 12:21:01;;;;;;;7.67;7.10;;;22.20;42.20;;;;;;4864809;29;20815;-79
2021/06/25 12:23:27;;;;;;;7.60;7.10;;;22.20;42.20;;;;;;4859686;29;20460;-78
2021/06/25 12:25:52;;;;;;;6.63;6.23;;;22.20;42.20;;;;;;4848894;29;20454;-79
2021/06/25 12:28:23;;;;;;;7.53;6.93;;;22.20;42.20;;;;;;4848521;29;20222;-79
2021/06/25 12:30:57;;;;;;;6.60;6.20;;;22.20;42.20;;;;;;4849654;29;20560;-79
2021/06/25 12:33:29;;;;;;;6.63;6.23;;;22.20;42.20;;;;;;4865917;29;20470;-80
2021/06/25 12:35:57;;;;;;;6.00;5.60;;;22.20;41.80;;;;;;4866111;29;20421;-79
2021/06/25 12:38:28;;;;;;;6.67;6.27;;;22.20;42.00;;;;;;4866057;29;20502;-80
2021/06/25 12:40:58;;;;;;;6.60;6.20;;;22.20;42.10;;;;;;4865949;29;20423;-79
2021/06/25 12:43:35;;;;;;;6.57;6.10;;;22.30;42.00;;;;;;4850348;29;20903;-79
2021/06/25 12:46:14;;;;;;;5.87;5.50;;;22.30;41.90;;;;;;4866708;29;20450;-80
2021/06/25 12:48:48;;;;;;;6.67;6.17;;;22.30;41.80;;;;;;4866608;29;20957;-79
2021/06/25 12:51:13;;;;;;;6.07;5.67;;;22.30;41.70;;;;;;4865631;29;20953;-79
2021/06/25 12:53:43;;;;;;;6.67;6.03;;;22.30;41.60;;;;;;4849403;29;20475;-79
2021/06/25 12:56:23;;;;;;;6.80;6.20;;;22.40;41.70;;;;;;4849138;29;20222;-78
2021/06/25 12:59:00;;;;;;;7.10;6.70;;;22.40;41.70;;;;;;4865530;29;20475;-78
2021/06/25 13:01:41;;;;;;;6.63;6.07;;;22.40;41.60;;;;;;4848862;29;20840;-80
2021/06/25 13:04:33;;;;;;;6.23;5.90;;;22.40;41.50;;;;;;4865375;29;20443;-80
2021/06/25 13:07:03;;;;;;;7.83;7.23;;;22.40;41.40;;;;;;4865445;29;20421;-77
2021/06/25 13:09:29;;;;;;;6.60;6.03;;;22.40;41.30;;;;;;4864393;29;20423;-78
2021/06/25 13:12:11;;;;;;;6.90;6.50;;;22.40;41.30;;;;;;4863522;29;20482;-78
2021/06/25 13:14:41;;;;;;;7.00;6.50;;;22.40;41.30;;;;;;4847364;29;20194;-78